Wanderer — XX — position and weather

sailwx.info

Track history (hours):
 
Tides and Currents Weather Stations Pressure Air Temp Water Temp Dewpoint Dewpoint Depression Visibility Wind Speed Wind Dir Waves Ship Positions

Wanderer

Last reported at 2015-Jul-11 19:31 UTC. Time now 2015-Aug-02 12:18 UTC.
Position N 41°29' W 071°19'.
Warning: this ship's position is 21 days out of date.

Length 19 m.

Type: Pleasure craft. MMSI: 338047657.

Date/timePositionNaut miles runAvg speedWind from/ knotsBaromVisibWave heightAir tempDewpointWater temp
2015-Jul-11 19:31N 41°29' W 071°19'4 3.6
2015-Jul-11 18:28N 41°26' W 071°22'4 4.0
2015-Jul-11 17:33N 41°26' W 071°17'5453.9
2015-Jul-11 16:33N 41°15' W 072°27'2525.3
2015-Jul-11 15:33N 41°13' W 071°53'1413.6
2015-Jul-11 14:31N 41°11' W 071°35'3 0.1
2015-Jul-09 16:33N 41°14' W 071°36'17 0.6
2015-Jul-08 13:33N 41°19' W 071°14'1817.9
2015-Jul-08 12:33N 41°12' W 071°35'1 1.0
2015-Jul-08 11:33N 41°11' W 071°35'0 0.0
2015-Jul-08 10:33N 41°11' W 071°35'0 0.0
2015-Jul-08 09:30N 41°11' W 071°35'0 0.0
2015-Jul-08 08:33N 41°11' W 071°35'0 0.0
2015-Jul-08 07:33N 41°11' W 071°35'0 0.0
2015-Jul-08 06:33N 41°11' W 071°35'0 0.0
2015-Jul-08 05:33N 41°11' W 071°35'0 0.0
2015-Jul-08 04:30N 41°11' W 071°35'0 0.0
2015-Jul-08 03:33N 41°11' W 071°35'0 0.0
2015-Jul-08 02:30N 41°11' W 071°35'0 0.0
2015-Jul-08 01:33N 41°11' W 071°35'0 0.0
2015-Jul-08 00:33N 41°11' W 071°35'0 0.0
2015-Jul-07 23:33N 41°11' W 071°35'0 0.0
2015-Jul-07 22:30N 41°11' W 071°35'0 0.0
2015-Jul-07 21:30N 41°11' W 071°35'0 0.0
2015-Jul-07 20:30N 41°11' W 071°35'0 0.0
2015-Jul-07 19:33N 41°11' W 071°35'0 0.0
2015-Jul-07 18:33N 41°11' W 071°35'0 0.0
2015-Jul-07 17:33N 41°11' W 071°35'0 0.0
2015-Jul-07 16:30N 41°11' W 071°35'7 7.3
2015-Jul-07 15:33N 41°11' W 071°44'1010.4
2015-Jul-07 14:33N 41°06' W 071°56'2 0.1
2015-Jul-06 22:33N 41°04' W 071°56'0 0.0
2015-Jul-06 21:33N 41°04' W 071°56'0 0.0
2015-Jul-06 20:33N 41°04' W 071°56'0 0.0
2015-Jul-06 19:33N 41°04' W 071°56'0 0.0
2015-Jul-06 18:33N 41°04' W 071°56'0 0.0
2015-Jul-06 17:33N 41°04' W 071°56'9 9.3
2015-Jul-06 16:33N 41°09' W 072°07'9 9.2
2015-Jul-06 15:33N 41°03' W 072°16'3 2.8
2015-Jul-06 14:33N 41°00' W 072°18'0 0.0
2015-Jul-06 13:30N 41°00' W 072°18'15 0.3
2015-Jul-04 15:11N 41°15' W 072°20'6 0.1
2015-Jul-02 19:04N 41°21' W 072°23'4787.3
2015-Jul-02 18:32N 41°28' W 071°21'47880.8
2015-Jul-02 18:29N 41°21' W 072°23'3 2.8
2015-Jul-02 17:33N 41°19' W 072°21'265142.7
2015-Jul-02 17:33N 41°17' W 071°47'3131.5
2015-Jul-02 16:33N 41°15' W 072°28'81690.7
2015-Jul-02 16:33N 41°15' W 072°18'  
Track history (hours):
 
Tides and Currents Weather Stations Pressure Air Temp Water Temp Dewpoint Dewpoint Depression Visibility Wind Speed Wind Dir Waves Ship Positions

Wanderer

Last reported at 2015-Jul-11 19:31 UTC. Time now 2015-Aug-02 12:18 UTC.
Position N 41°29' W 071°19'.
Warning: this ship's position is 21 days out of date.

Length 19 m.

Type: Pleasure craft. MMSI: 338047657.

Date/timePositionNaut miles runAvg speedWind from/ knotsBaromVisibWave heightAir tempDewpointWater temp
2015-Jul-11 19:31N 41°29' W 071°19'4 3.6
2015-Jul-11 18:28N 41°26' W 071°22'4 4.0
2015-Jul-11 17:33N 41°26' W 071°17'5453.9
2015-Jul-11 16:33N 41°15' W 072°27'2525.3
2015-Jul-11 15:33N 41°13' W 071°53'1413.6
2015-Jul-11 14:31N 41°11' W 071°35'3 0.1
2015-Jul-09 16:33N 41°14' W 071°36'17 0.6
2015-Jul-08 13:33N 41°19' W 071°14'1817.9
2015-Jul-08 12:33N 41°12' W 071°35'1 1.0
2015-Jul-08 11:33N 41°11' W 071°35'0 0.0
2015-Jul-08 10:33N 41°11' W 071°35'0 0.0
2015-Jul-08 09:30N 41°11' W 071°35'0 0.0
2015-Jul-08 08:33N 41°11' W 071°35'0 0.0
2015-Jul-08 07:33N 41°11' W 071°35'0 0.0
2015-Jul-08 06:33N 41°11' W 071°35'0 0.0
2015-Jul-08 05:33N 41°11' W 071°35'0 0.0
2015-Jul-08 04:30N 41°11' W 071°35'0 0.0
2015-Jul-08 03:33N 41°11' W 071°35'0 0.0
2015-Jul-08 02:30N 41°11' W 071°35'0 0.0
2015-Jul-08 01:33N 41°11' W 071°35'0 0.0
2015-Jul-08 00:33N 41°11' W 071°35'0 0.0
2015-Jul-07 23:33N 41°11' W 071°35'0 0.0
2015-Jul-07 22:30N 41°11' W 071°35'0 0.0
2015-Jul-07 21:30N 41°11' W 071°35'0 0.0
2015-Jul-07 20:30N 41°11' W 071°35'0 0.0
2015-Jul-07 19:33N 41°11' W 071°35'0 0.0
2015-Jul-07 18:33N 41°11' W 071°35'0 0.0
2015-Jul-07 17:33N 41°11' W 071°35'0 0.0
2015-Jul-07 16:30N 41°11' W 071°35'7 7.3
2015-Jul-07 15:33N 41°11' W 071°44'1010.4
2015-Jul-07 14:33N 41°06' W 071°56'2 0.1
2015-Jul-06 22:33N 41°04' W 071°56'0 0.0
2015-Jul-06 21:33N 41°04' W 071°56'0 0.0
2015-Jul-06 20:33N 41°04' W 071°56'0 0.0
2015-Jul-06 19:33N 41°04' W 071°56'0 0.0
2015-Jul-06 18:33N 41°04' W 071°56'0 0.0
2015-Jul-06 17:33N 41°04' W 071°56'9 9.3
2015-Jul-06 16:33N 41°09' W 072°07'9 9.2
2015-Jul-06 15:33N 41°03' W 072°16'3 2.8
2015-Jul-06 14:33N 41°00' W 072°18'0 0.0
2015-Jul-06 13:30N 41°00' W 072°18'15 0.3
2015-Jul-04 15:11N 41°15' W 072°20'6 0.1
2015-Jul-02 19:04N 41°21' W 072°23'4787.3
2015-Jul-02 18:32N 41°28' W 071°21'47880.8
2015-Jul-02 18:29N 41°21' W 072°23'3 2.8
2015-Jul-02 17:33N 41°19' W 072°21'265142.7
2015-Jul-02 17:33N 41°17' W 071°47'3131.5
2015-Jul-02 16:33N 41°15' W 072°28'81690.7
2015-Jul-02 16:33N 41°15' W 072°18'  

Dump ship's entire track history